Time;durP1;ratioP1;P1;durP2;ratioP2;P2;SDS_P1;SDS_P2;PMS_P1;PMS_P2;Temp;Humidity;BMP_temperature;BMP_pressure;BME280_temperature;BME280_humidity;BME280_pressure;Samples;Min_cycle;Max_cycle;Signal;HPM_P1;HPM_P2
2024/03/10 04:30:29;;;;;;;;;;;;;;;;;;;;;
2024/03/10 04:37:33;;;;;;;;;;;;;;;;;;;;;
2024/03/10 04:40:41;;;;;;;44.60;24.63;;;;;;;6.11;100.00;98483.34;4794009;29;20034;-96
2024/03/10 04:43:19;;;;;;;32.72;15.07;;;;;;;6.03;100.00;98486.75;4775722;29;20046;-95
2024/03/10 04:45:54;;;;;;;39.78;21.63;;;;;;;6.14;100.00;98486.47;4778908;29;20742;-96
2024/03/10 04:48:58;;;;;;;49.90;22.85;;;;;;;6.18;100.00;98495.66;4801359;29;20042;-96
2024/03/10 04:52:16;;;;;;;29.45;16.27;;;;;;;6.20;100.00;98492.84;4788142;29;20049;-96
2024/03/10 05:00:42;;;;;;;;;;;;;;;;;;;;;
2024/03/10 05:03:21;;;;;;;36.80;16.45;;;;;;;6.15;100.00;98508.25;4700076;30;20127;-95
2024/03/10 05:06:00;;;;;;;48.35;23.52;;;;;;;6.17;100.00;98504.50;4715196;30;20053;-96
2024/03/10 05:13:03;;;;;;;41.45;18.83;;;;;;;6.12;100.00;98503.34;4725272;29;20053;-96
2024/03/10 05:16:32;;;;;;;;;;;;;;;;;;;;;
2024/03/10 05:19:44;;;;;;;45.28;24.25;;;;;;;6.15;100.00;98509.09;4755725;29;20043;-96
2024/03/10 05:23:11;;;;;;;38.90;16.67;;;;;;;6.10;100.00;98510.56;4792560;29;20112;-96
2024/03/10 05:29:37;;;;;;;50.42;25.52;;;;;;;6.13;100.00;98516.28;4749815;30;20039;-96
2024/03/10 05:32:56;;;;;;;35.13;17.08;;;;;;;6.08;100.00;98521.22;4753963;30;20123;-96
2024/03/10 06:28:51;;;;;;;42.92;21.02;;;;;;;5.98;100.00;98552.00;4836494;29;20093;-96
2024/03/10 06:32:45;;;;;;;46.05;21.70;;;;;;;5.97;100.00;98543.31;4831829;29;20527;-96
2024/03/10 06:35:36;;;;;;;48.90;20.75;;;;;;;5.98;100.00;98541.50;4761142;29;20091;-96
2024/03/10 06:46:32;;;;;;;34.45;15.73;;;;;;;5.98;100.00;98550.19;4845111;29;20037;-96
2024/03/10 06:53:15;;;;;;;45.92;20.70;;;;;;;5.99;100.00;98551.03;4839366;29;20159;-95
2024/03/10 07:00:07;;;;;;;63.22;24.63;;;;;;;5.94;100.00;98551.50;4756471;30;20021;-96
2024/03/10 07:03:02;;;;;;;62.28;24.85;;;;;;;5.96;100.00;98560.03;4752689;30;20089;-96
2024/03/10 07:09:52;;;;;;;61.22;25.25;;;;;;;5.99;100.00;98556.28;4773812;30;20616;-96
2024/03/10 07:19:49;;;;;;;42.45;20.58;;;;;;;6.02;100.00;98556.75;4826194;29;20042;-96
2024/03/10 07:23:36;;;;;;;;;;;;;;;;;;;;;
2024/03/10 07:26:47;;;;;;;48.05;22.00;;;;;;;5.91;100.00;98568.38;4769378;30;20055;-96
2024/03/10 07:29:48;;;;;;;54.47;22.88;;;;;;;6.07;100.00;98572.03;4751978;30;20048;-96
2024/03/10 07:36:48;;;;;;;44.53;20.52;;;;;;;6.06;100.00;98583.50;4717068;30;20586;-96
2024/03/10 07:40:27;;;;;;;51.22;23.73;;;;;;;6.06;100.00;98579.09;4656363;30;20346;-96
2024/03/10 07:44:12;;;;;;;34.65;16.08;;;;;;;6.05;100.00;98587.94;4707095;30;20080;-96
2024/03/10 07:48:22;;;;;;;45.38;22.63;;;;;;;6.12;100.00;98600.41;4691418;30;20045;-96
2024/03/10 07:51:50;;;;;;;40.65;20.73;;;;;;;6.09;100.00;98601.56;4693077;30;20061;-96
2024/03/10 07:58:18;;;;;;;51.22;21.52;;;;;;;6.10;100.00;98599.75;4741789;30;20085;-96
2024/03/10 08:14:05;;;;;;;44.90;17.98;;;;;;;6.06;100.00;98604.50;4698543;30;20062;-96
2024/03/10 08:20:17;;;;;;;46.58;21.27;;;;;;;5.99;100.00;98604.28;4681332;30;20164;-96
2024/03/10 08:26:05;;;;;;;53.28;23.13;;;;;;;6.02;100.00;98614.44;4771238;29;20073;-96
2024/03/10 08:28:56;;;;;;;47.22;22.25;;;;;;;6.05;100.00;98621.22;4827517;29;20060;-96
2024/03/10 08:31:55;;;;;;;44.50;19.70;;;;;;;6.01;100.00;98625.94;4811125;29;20034;-96
2024/03/10 08:35:09;;;;;;;;;;;;;;;;;;;;;
2024/03/10 08:38:57;;;;;;;61.63;25.33;;;;;;;5.97;100.00;98624.63;4863651;29;20154;-95
2024/03/10 08:41:27;;;;;;;56.42;24.42;;;;;;;5.87;100.00;98616.06;4818134;29;20045;-96
2024/03/10 08:44:03;;;;;;;61.25;24.50;;;;;;;5.96;100.00;98626.41;4834561;29;20186;-96
2024/03/10 08:46:30;;;;;;;54.10;23.55;;;;;;;5.88;100.00;98622.94;4815912;29;20045;-96
2024/03/10 08:48:57;;;;;;;44.00;19.27;;;;;;;5.91;100.00;98623.44;4817506;29;20037;-94
2024/03/10 08:51:27;;;;;;;59.30;26.83;;;;;;;5.90;100.00;98623.59;4836392;29;20515;-96
2024/03/10 08:53:54;;;;;;;61.63;27.50;;;;;;;5.91;100.00;98620.00;4815747;29;20051;-96
2024/03/10 08:56:20;;;;;;;68.03;28.88;;;;;;;5.92;100.00;98621.66;4824269;29;20033;-96
2024/03/10 08:58:46;;;;;;;57.45;25.75;;;;;;;5.90;100.00;98624.44;4813302;29;20488;-95
2024/03/10 09:01:13;;;;;;;52.83;24.48;;;;;;;5.90;100.00;98632.28;4836812;29;20046;-96
2024/03/10 09:03:40;;;;;;;46.63;21.90;;;;;;;5.93;100.00;98646.88;4834408;29;20313;-96
2024/03/10 09:06:10;;;;;;;57.60;26.88;;;;;;;5.87;100.00;98627.38;4824313;29;20146;-96
2024/03/10 09:08:36;;;;;;;57.30;26.98;;;;;;;5.91;100.00;98643.63;4820142;29;20049;-96
2024/03/10 09:11:06;;;;;;;62.85;28.08;;;;;;;5.90;100.00;98631.47;4813348;29;20043;-96
2024/03/10 09:13:33;;;;;;;57.72;24.15;;;;;;;5.90;100.00;98634.91;4826625;29;20029;-96
2024/03/10 09:16:24;;;;;;;42.70;22.85;;;;;;;5.95;100.00;98635.28;4827686;29;20743;-96
2024/03/10 09:19:09;;;;;;;47.08;24.92;;;;;;;5.94;100.00;98636.22;4822742;29;20512;-96
2024/03/10 09:21:49;;;;;;;65.80;25.90;;;;;;;5.86;100.00;98628.31;4809381;29;20038;-96
2024/03/10 09:24:29;;;;;;;47.72;22.52;;;;;;;5.89;100.00;98638.50;4813139;29;20053;-95
2024/03/10 09:28:00;;;;;;;53.08;22.42;;;;;;;5.91;100.00;98633.94;4822792;29;20041;-96
2024/03/10 09:30:30;;;;;;;52.55;23.20;;;;;;;5.94;100.00;98630.97;4822748;29;20045;-93
2024/03/10 09:32:58;;;;;;;41.90;18.73;;;;;;;5.87;100.00;98632.63;4810924;29;20036;-93
2024/03/10 09:35:43;;;;;;;35.13;17.05;;;;;;;5.93;100.00;98641.63;4832977;29;20045;-96
2024/03/10 09:38:13;;;;;;;49.53;23.80;;;;;;;5.94;100.00;98640.66;4817992;29;20061;-96
2024/03/10 09:40:45;;;;;;;47.63;22.25;;;;;;;5.99;100.00;98642.81;4812078;29;20540;-96
2024/03/10 09:43:16;;;;;;;53.55;25.67;;;;;;;5.98;100.00;98644.59;4843441;29;20147;-96
2024/03/10 09:45:47;;;;;;;31.25;13.32;;;;;;;5.86;100.00;98632.78;4813517;29;20053;-93
2024/03/10 09:48:25;;;;;;;49.83;22.55;;;;;;;5.89;100.00;98630.63;4822669;29;20034;-95
2024/03/10 09:51:28;;;;;;;47.30;22.10;;;;;;;5.98;100.00;98644.59;4820272;29;20109;-96
2024/03/10 09:54:22;;;;;;;45.95;22.92;;;;;;;6.05;100.00;98653.50;4815275;29;20038;-95
2024/03/10 09:56:59;;;;;;;39.67;19.33;;;;;;;5.99;100.00;98645.44;4802841;29;20052;-95
2024/03/10 10:00:14;;;;;;;36.47;18.63;;;;;;;6.01;100.00;98648.69;4820926;29;20487;-96
2024/03/10 10:06:03;;;;;;;38.00;21.75;;;;;;;5.99;100.00;98656.72;4839462;29;20046;-96
2024/03/10 10:08:29;;;;;;;39.35;19.92;;;;;;;5.91;100.00;98656.72;4824039;29;20069;-96
2024/03/10 10:10:58;;;;;;;33.40;19.25;;;;;;;5.95;100.00;98660.66;4837661;29;20606;-94
2024/03/10 10:13:27;;;;;;;27.15;13.85;;;;;;;5.93;100.00;98660.00;4804030;29;20037;-93
2024/03/10 10:15:56;;;;;;;32.25;17.38;;;;;;;5.98;100.00;98662.13;4837641;29;20075;-95
2024/03/10 10:18:23;;;;;;;40.78;21.85;;;;;;;5.97;100.00;98663.97;4827461;29;20038;-94
2024/03/10 10:20:53;;;;;;;39.20;20.55;;;;;;;5.96;100.00;98665.75;4805905;29;20026;-96
2024/03/10 10:23:23;;;;;;;35.45;19.58;;;;;;;6.02;100.00;98666.91;4802638;29;20048;-94
2024/03/10 10:26:05;;;;;;;32.78;15.77;;;;;;;5.99;100.00;98667.22;4844923;29;20064;-93
2024/03/10 10:28:34;;;;;;;27.52;16.65;;;;;;;5.95;100.00;98663.28;4827492;29;20484;-93
2024/03/10 10:31:09;;;;;;;41.33;21.48;;;;;;;6.00;100.00;98654.94;4824018;29;20049;-95
2024/03/10 10:33:35;;;;;;;34.45;19.25;;;;;;;5.99;100.00;98674.28;4824307;29;20847;-93
2024/03/10 10:36:05;;;;;;;31.73;16.80;;;;;;;5.98;100.00;98667.38;4825991;29;20132;-94
2024/03/10 10:38:40;;;;;;;36.70;18.65;;;;;;;6.05;100.00;98674.50;4826808;29;20053;-95
2024/03/10 10:41:07;;;;;;;35.90;19.52;;;;;;;5.94;100.00;98664.28;4822394;29;20045;-94
2024/03/10 10:43:38;;;;;;;33.47;18.33;;;;;;;6.00;100.00;98668.06;4807524;29;20128;-93
2024/03/10 10:46:10;;;;;;;39.05;20.17;;;;;;;6.01;100.00;98670.53;4821079;29;20038;-95
2024/03/10 10:48:37;;;;;;;32.50;18.77;;;;;;;6.07;100.00;98672.53;4829394;29;20042;-96
2024/03/10 10:51:07;;;;;;;42.30;21.70;;;;;;;6.10;100.00;98681.88;4811407;29;20099;-95
2024/03/10 10:53:34;;;;;;;33.65;19.73;;;;;;;6.07;100.00;98664.66;4807010;29;20120;-94
2024/03/10 10:56:04;;;;;;;34.17;20.00;;;;;;;6.14;100.00;98674.53;4818477;29;20514;-96
2024/03/10 10:58:33;;;;;;;30.90;16.63;;;;;;;6.14;100.00;98687.63;4809885;29;20042;-94
2024/03/10 11:01:04;;;;;;;30.45;16.70;;;;;;;6.11;100.00;98677.47;4822959;29;20111;-94
2024/03/10 11:03:38;;;;;;;31.52;18.13;;;;;;;6.15;100.00;98682.22;4815826;29;20038;-92
2024/03/10 11:06:08;;;;;;;36.83;17.00;;;;;;;6.10;100.00;98670.59;4820325;29;20120;-94
2024/03/10 11:08:36;;;;;;;33.85;20.35;;;;;;;6.14;100.00;98670.09;4821052;29;20038;-96
2024/03/10 11:11:03;;;;;;;27.38;16.15;;;;;;;6.14;100.00;98677.13;4800969;29;20044;-96
2024/03/10 11:13:29;;;;;;;28.25;16.23;;;;;;;6.16;100.00;98677.81;4810832;29;21098;-92
2024/03/10 11:16:23;;;;;;;30.20;17.67;;;;;;;6.16;100.00;98670.75;4822613;29;20492;-96
2024/03/10 11:18:49;;;;;;;30.70;18.83;;;;;;;6.16;100.00;98681.22;4822615;29;20053;-96
2024/03/10 11:21:17;;;;;;;27.73;17.92;;;;;;;6.16;100.00;98683.06;4811768;29;20101;-95
2024/03/10 11:23:46;;;;;;;33.50;18.20;;;;;;;6.21;100.00;98680.78;4811729;29;20049;-94
2024/03/10 11:26:15;;;;;;;30.00;18.33;;;;;;;6.21;100.00;98691.28;4813548;29;20057;-96
2024/03/10 11:29:07;;;;;;;24.90;14.95;;;;;;;6.27;100.00;98690.63;4843927;29;20030;-96
2024/03/10 11:31:33;;;;;;;29.83;17.20;;;;;;;6.20;100.00;98700.09;4813717;29;20041;-95
2024/03/10 11:33:59;;;;;;;31.67;17.67;;;;;;;6.23;100.00;98691.91;4809421;29;20581;-96
2024/03/10 11:36:32;;;;;;;29.65;17.52;;;;;;;6.27;100.00;98692.44;4842729;29;20052;-95
2024/03/10 11:39:04;;;;;;;31.65;18.88;;;;;;;6.33;100.00;98694.41;4819785;29;20140;-95
2024/03/10 11:41:31;;;;;;;30.63;18.60;;;;;;;6.31;100.00;98693.75;4826811;29;20155;-93
2024/03/10 11:43:58;;;;;;;24.65;15.73;;;;;;;6.30;100.00;98698.19;4827374;29;20036;-95
2024/03/10 11:46:29;;;;;;;28.05;17.13;;;;;;;6.33;100.00;98690.00;4827023;29;20301;-95
2024/03/10 11:48:56;;;;;;;22.63;15.05;;;;;;;6.37;100.00;98692.31;4810521;29;20049;-95
2024/03/10 11:51:28;;;;;;;26.50;14.80;;;;;;;6.43;100.00;98689.03;4837603;29;20038;-95
2024/03/10 11:53:58;;;;;;;25.30;13.40;;;;;;;6.43;100.00;98692.47;4827665;29;20041;-94
2024/03/10 11:56:25;;;;;;;24.00;13.23;;;;;;;6.44;100.00;98702.00;4846938;29;20545;-96
2024/03/10 11:58:57;;;;;;;23.27;12.95;;;;;;;6.50;100.00;98700.50;4812952;29;20303;-96
2024/03/10 12:01:26;;;;;;;23.63;14.30;;;;;;;6.48;100.00;98694.63;4814554;29;20064;-96
2024/03/10 12:03:54;;;;;;;28.20;14.38;;;;;;;6.57;100.00;98703.31;4839454;29;20048;-94
2024/03/10 12:06:23;;;;;;;25.10;12.63;;;;;;;6.53;100.00;98708.06;4837102;29;20042;-95
2024/03/10 12:08:50;;;;;;;25.58;14.40;;;;;;;6.50;100.00;98691.84;4828620;29;20045;-95
2024/03/10 12:11:17;;;;;;;23.95;12.30;;;;;;;6.50;100.00;98703.13;4831107;29;20072;-95
2024/03/10 12:13:44;;;;;;;27.05;14.05;;;;;;;6.44;100.00;98699.38;4811182;29;20038;-95
2024/03/10 12:16:11;;;;;;;27.85;16.98;;;;;;;6.49;100.00;98705.94;4828312;29;20083;-96
2024/03/10 12:18:40;;;;;;;26.60;15.70;;;;;;;6.50;100.00;98718.09;4792648;29;20066;-96
2024/03/10 12:21:10;;;;;;;22.67;11.52;;;;;;;6.50;100.00;98708.38;4826450;29;20037;-96
2024/03/10 12:23:37;;;;;;;23.77;13.98;;;;;;;6.51;100.00;98709.22;4825302;29;20049;-96
2024/03/10 12:26:13;;;;;;;23.42;14.13;;;;;;;6.58;100.00;98705.78;4805219;29;20049;-95
2024/03/10 12:28:46;;;;;;;33.50;16.63;;;;;;;6.66;100.00;98718.09;4813606;29;20564;-96
2024/03/10 12:31:14;;;;;;;27.23;15.07;;;;;;;6.69;100.00;98712.53;4812148;29;20033;-96
2024/03/10 12:33:42;;;;;;;22.65;11.40;;;;;;;6.72;100.00;98713.19;4829933;29;20102;-96
2024/03/10 12:36:12;;;;;;;29.52;16.00;;;;;;;6.70;100.00;98711.53;4807379;29;20060;-96
2024/03/10 12:38:42;;;;;;;30.92;16.77;;;;;;;6.76;100.00;98704.84;4827162;29;20053;-96
2024/03/10 12:41:13;;;;;;;31.10;16.10;;;;;;;6.88;100.00;98712.41;4825031;29;20034;-95
2024/03/10 12:43:41;;;;;;;29.90;16.30;;;;;;;6.85;100.00;98712.72;4812720;29;20044;-96
2024/03/10 12:46:17;;;;;;;30.45;16.05;;;;;;;6.81;100.00;98714.84;4808152;29;20045;-96
2024/03/10 12:48:45;;;;;;;15.40;6.95;;;;;;;6.83;100.00;98720.75;4830489;29;20045;-94
2024/03/10 12:51:12;;;;;;;23.30;13.90;;;;;;;6.78;100.00;98720.41;4823003;29;20095;-96
2024/03/10 12:53:39;;;;;;;21.48;12.98;;;;;;;6.77;100.00;98716.16;4826249;29;20038;-96
2024/03/10 12:56:16;;;;;;;20.95;12.65;;;;;;;6.82;100.00;98721.72;4813115;29;20037;-96
2024/03/10 12:58:46;;;;;;;21.33;10.45;;;;;;;6.88;100.00;98730.78;4815970;29;20040;-96
2024/03/10 13:01:16;;;;;;;28.15;15.10;;;;;;;6.88;100.00;98730.78;4831945;29;20037;-96
2024/03/10 13:03:42;;;;;;;20.83;11.82;;;;;;;6.83;100.00;98720.75;4827835;29;20048;-96
2024/03/10 13:06:08;;;;;;;30.30;15.60;;;;;;;6.85;100.00;98728.47;4806071;29;20041;-96
2024/03/10 13:08:34;;;;;;;31.73;14.27;;;;;;;6.92;100.00;98738.16;4829014;29;20054;-96
2024/03/10 13:11:00;;;;;;;26.90;14.00;;;;;;;6.81;100.00;98741.94;4818272;29;20057;-96
2024/03/10 13:13:27;;;;;;;30.05;15.02;;;;;;;6.84;100.00;98740.78;4845314;29;20049;-96
2024/03/10 13:15:54;;;;;;;30.17;16.00;;;;;;;6.83;100.00;98739.94;4833306;29;20049;-96
2024/03/10 13:18:21;;;;;;;22.73;12.85;;;;;;;6.79;100.00;98730.75;4828408;29;20041;-96
2024/03/10 13:20:48;;;;;;;24.75;14.63;;;;;;;6.79;100.00;98736.00;4828673;29;20040;-96
2024/03/10 13:23:14;;;;;;;22.08;11.13;;;;;;;6.82;100.00;98748.00;4834459;29;20056;-96
2024/03/10 13:25:44;;;;;;;21.48;12.95;;;;;;;6.79;100.00;98736.00;4816202;29;20053;-96
2024/03/10 13:28:12;;;;;;;22.27;11.43;;;;;;;6.81;100.00;98749.81;4809223;29;20034;-96
2024/03/10 13:30:39;;;;;;;19.92;10.48;;;;;;;6.79;100.00;98753.56;4838201;29;20474;-93
2024/03/10 13:33:05;;;;;;;22.30;12.52;;;;;;;6.74;100.00;98746.19;4810428;29;20048;-95
2024/03/10 13:35:31;;;;;;;20.23;12.70;;;;;;;6.77;100.00;98745.84;4839502;29;20037;-96
2024/03/10 13:37:58;;;;;;;20.13;11.65;;;;;;;6.76;100.00;98735.50;4836497;29;20120;-96
2024/03/10 13:40:23;;;;;;;22.20;11.80;;;;;;;6.79;100.00;98733.38;4807297;29;20032;-95
2024/03/10 13:42:49;;;;;;;17.00;10.77;;;;;;;6.89;100.00;98737.66;4771098;29;20235;-96
2024/03/10 13:45:16;;;;;;;19.60;11.77;;;;;;;6.92;100.00;98726.84;4809294;29;20042;-96
2024/03/10 13:47:43;;;;;;;18.85;11.82;;;;;;;6.97;100.00;98729.81;4793001;29;20461;-95
2024/03/10 13:50:10;;;;;;;24.02;10.73;;;;;;;7.02;100.00;98726.69;4807107;29;20098;-94
2024/03/10 13:52:37;;;;;;;25.25;11.35;;;;;;;7.05;100.00;98727.19;4815297;29;20124;-95
2024/03/10 13:55:06;;;;;;;20.85;11.80;;;;;;;7.04;100.00;98728.16;4821338;29;20076;-95
2024/03/10 13:57:32;;;;;;;20.50;11.63;;;;;;;7.06;100.00;98735.88;4795170;29;20041;-92
2024/03/10 13:59:58;;;;;;;17.45;10.23;;;;;;;7.07;100.00;98735.69;4792200;29;20067;-96
2024/03/10 14:02:24;;;;;;;26.65;13.10;;;;;;;7.10;100.00;98739.00;4813343;29;20037;-95
2024/03/10 14:04:49;;;;;;;21.80;11.88;;;;;;;7.10;100.00;98741.63;4792431;29;20048;-96
2024/03/10 14:07:15;;;;;;;20.05;11.55;;;;;;;7.07;100.00;98740.16;4794567;29;20099;-96
2024/03/10 14:09:45;;;;;;;19.88;11.20;;;;;;;7.11;100.00;98733.56;4801372;29;20034;-96
2024/03/10 14:12:12;;;;;;;17.80;9.88;;;;;;;7.11;100.00;98738.81;4794366;29;20511;-96
2024/03/10 14:14:39;;;;;;;16.70;11.30;;;;;;;7.09;100.00;98735.53;4792607;29;20065;-96
2024/03/10 14:17:06;;;;;;;12.10;8.85;;;;;;;7.22;100.00;98755.25;4802270;29;20505;-96
2024/03/10 14:19:33;;;;;;;20.63;10.43;;;;;;;7.20;100.00;98742.25;4805150;29;20030;-95
2024/03/10 14:21:59;;;;;;;13.13;8.88;;;;;;;7.22;100.00;98750.81;4805066;29;20440;-96
2024/03/10 14:24:25;;;;;;;11.27;7.93;;;;;;;7.20;100.00;98750.97;4791383;29;20080;-96
2024/03/10 14:26:57;;;;;;;13.57;7.00;;;;;;;7.18;100.00;98754.75;4816309;29;20041;-96
2024/03/10 14:29:24;;;;;;;10.32;6.80;;;;;;;7.18;100.00;98766.06;4821637;29;20103;-94
2024/03/10 14:31:50;;;;;;;12.80;8.15;;;;;;;7.21;100.00;98762.31;4819793;29;20042;-96
2024/03/10 14:34:17;;;;;;;13.73;8.63;;;;;;;7.23;100.00;98762.97;4806065;29;20046;-94
2024/03/10 14:36:43;;;;;;;17.80;8.30;;;;;;;7.26;100.00;98757.38;4807751;29;20061;-95
2024/03/10 14:39:13;;;;;;;13.30;7.55;;;;;;;7.32;100.00;98764.63;4837617;29;20544;-96
2024/03/10 14:41:39;;;;;;;11.27;8.00;;;;;;;7.29;100.00;98748.34;4823484;29;20043;-96
2024/03/10 14:44:05;;;;;;;12.27;7.68;;;;;;;7.29;100.00;98749.16;4827080;29;20033;-96
2024/03/10 14:46:32;;;;;;;12.35;8.32;;;;;;;7.31;100.00;98757.72;4838638;29;20137;-96
2024/03/10 14:48:58;;;;;;;12.65;8.23;;;;;;;7.31;100.00;98756.91;4812668;29;20030;-96
2024/03/10 14:51:26;;;;;;;13.02;7.70;;;;;;;7.34;100.00;98763.63;4813406;29;20125;-94
2024/03/10 14:53:52;;;;;;;12.68;7.28;;;;;;;7.32;100.00;98771.69;4817684;29;20094;-95
2024/03/10 14:56:19;;;;;;;17.92;9.48;;;;;;;7.34;100.00;98761.84;4821255;29;20073;-94
2024/03/10 14:58:47;;;;;;;13.25;7.35;;;;;;;7.45;100.00;98758.84;4809486;29;20050;-96
2024/03/10 15:01:14;;;;;;;16.30;7.47;;;;;;;7.42;100.00;98764.44;4820852;29;20069;-96
2024/03/10 15:03:43;;;;;;;10.63;7.40;;;;;;;7.41;100.00;98760.16;4820773;29;20076;-96
2024/03/10 15:06:11;;;;;;;11.13;7.43;;;;;;;7.50;100.00;98768.06;4819334;29;20045;-96
2024/03/10 15:08:37;;;;;;;10.65;7.72;;;;;;;7.50;100.00;98753.09;4816921;29;20040;-96
2024/03/10 15:11:05;;;;;;;13.23;8.52;;;;;;;7.60;100.00;98767.88;4842616;29;20196;-96
2024/03/10 15:13:34;;;;;;;8.85;6.82;;;;;;;7.60;100.00;98763.44;4830226;29;20050;-96
2024/03/10 15:16:07;;;;;;;13.50;7.00;;;;;;;7.57;100.00;98769.84;4835507;29;20105;-96
2024/03/10 15:18:37;;;;;;;13.18;7.25;;;;;;;7.50;100.00;98768.84;4837294;29;20068;-93
2024/03/10 15:21:04;;;;;;;12.35;7.93;;;;;;;7.61;100.00;98764.25;4950492;24;20041;-87
2024/03/10 15:23:30;;;;;;;14.88;8.30;;;;;;;7.66;100.00;98764.59;4878412;29;20052;-86
2024/03/10 15:26:03;;;;;;;9.45;6.55;;;;;;;7.72;100.00;98756.03;4845169;29;20103;-84
2024/03/10 15:28:29;;;;;;;11.48;7.13;;;;;;;7.72;100.00;98763.91;4944353;24;20136;-87
2024/03/10 15:30:57;;;;;;;10.32;5.72;;;;;;;7.79;100.00;98758.78;4845320;29;20049;-84
2024/03/10 15:33:22;;;;;;;9.52;6.68;;;;;;;7.82;100.00;98766.34;4828647;29;20041;-84
2024/03/10 15:35:49;;;;;;;10.65;7.97;;;;;;;7.89;100.00;98763.88;4859311;29;20506;-84
2024/03/10 15:38:15;;;;;;;11.43;7.70;;;;;;;7.94;100.00;98756.28;4845835;29;20033;-85
2024/03/10 15:40:40;;;;;;;10.35;7.47;;;;;;;8.02;100.00;98764.16;4827297;29;20036;-84
2024/03/10 15:43:08;;;;;;;13.73;6.93;;;;;;;8.01;100.00;98770.41;4846986;29;20041;-84
2024/03/10 15:45:39;;;;;;;11.98;7.80;;;;;;;7.98;100.00;98759.41;4842780;29;20485;-85
2024/03/10 15:48:06;;;;;;;9.45;6.63;;;;;;;7.99;100.00;98769.78;4842518;29;20038;-87
2024/03/10 15:50:32;;;;;;;10.85;7.28;;;;;;;8.01;100.00;98769.59;4857935;29;20073;-86
2024/03/10 15:53:00;;;;;;;13.68;7.63;;;;;;;8.06;100.00;98775.16;4829335;29;20127;-84
2024/03/10 15:55:26;;;;;;;11.60;7.20;;;;;;;8.10;100.00;98781.75;4839868;29;20049;-85
2024/03/10 15:57:53;;;;;;;11.68;7.03;;;;;;;8.13;100.00;98781.41;4857812;29;20036;-85
2024/03/10 16:00:22;;;;;;;10.50;6.72;;;;;;;8.11;100.00;98770.22;4843175;29;20030;-85
2024/03/10 16:03:10;;;;;;;8.95;6.82;;;;;;;8.18;100.00;98773.81;4855376;29;20037;-85
2024/03/10 16:05:47;;;;;;;12.07;7.20;;;;;;;8.15;100.00;98782.06;4842761;29;20112;-87
2024/03/10 16:08:15;;;;;;;14.35;7.30;;;;;;;8.19;100.00;98793.03;4844410;29;20041;-83
2024/03/10 16:10:42;;;;;;;8.15;5.80;;;;;;;8.11;100.00;98783.38;4844074;29;20041;-86
2024/03/10 16:13:10;;;;;;;8.38;5.93;;;;;;;8.02;100.00;98792.28;4827765;29;20049;-87
2024/03/10 16:15:38;;;;;;;8.10;5.97;;;;;;;7.95;100.00;98797.38;4859519;29;20042;-85
2024/03/10 16:18:07;;;;;;;8.02;6.20;;;;;;;7.93;100.00;98792.28;4845852;29;20045;-86
2024/03/10 16:20:43;;;;;;;12.80;6.72;;;;;;;7.89;100.00;98793.63;4840531;29;20034;-88
2024/03/10 16:23:14;;;;;;;7.38;5.50;;;;;;;7.84;100.00;98795.09;4827063;29;20038;-91
2024/03/10 16:25:41;;;;;;;8.25;5.47;;;;;;;7.69;100.00;98793.97;4817623;29;20574;-85
2024/03/10 16:28:06;;;;;;;11.68;5.55;;;;;;;7.66;100.00;98788.25;4836684;29;20057;-85
2024/03/10 16:30:32;;;;;;;10.98;6.82;;;;;;;7.64;100.00;98790.22;4842170;29;20041;-84
2024/03/10 16:32:58;;;;;;;11.85;5.95;;;;;;;7.67;100.00;98793.34;4839355;29;20067;-85
2024/03/10 16:35:25;;;;;;;12.88;6.45;;;;;;;7.67;100.00;98797.78;4842970;29;20065;-86
2024/03/10 16:37:52;;;;;;;8.63;6.05;;;;;;;7.67;100.00;98803.03;4828849;29;20037;-85
2024/03/10 16:40:18;;;;;;;10.90;5.80;;;;;;;7.67;100.00;98800.41;4857511;29;20029;-87
2024/03/10 16:42:47;;;;;;;8.43;6.43;;;;;;;7.64;100.00;98806.00;4843614;29;20037;-87
2024/03/10 16:45:18;;;;;;;8.75;5.13;;;;;;;7.67;100.00;98811.75;4825804;29;20449;-86
2024/03/10 16:47:46;;;;;;;8.32;5.75;;;;;;;7.63;100.00;98810.44;4825648;29;20101;-84
2024/03/10 16:50:26;;;;;;;8.55;4.80;;;;;;;7.59;100.00;98809.13;4811824;29;20037;-87
2024/03/10 16:53:06;;;;;;;8.38;5.97;;;;;;;7.54;100.00;98817.50;4818528;29;20040;-87
2024/03/10 16:55:34;;;;;;;8.05;5.43;;;;;;;7.59;100.00;98817.00;4843203;29;20045;-88
2024/03/10 16:58:09;;;;;;;7.95;4.90;;;;;;;7.61;100.00;98816.84;4859076;29;20494;-89
2024/03/10 17:00:38;;;;;;;8.13;4.93;;;;;;;7.59;100.00;98829.34;4832037;29;20037;-88
2024/03/10 17:03:05;;;;;;;8.70;5.00;;;;;;;7.55;100.00;98818.31;4842102;29;20037;-87
2024/03/10 17:05:38;;;;;;;7.60;4.90;;;;;;;7.57;100.00;98821.59;4830480;29;20048;-88
2024/03/10 17:08:05;;;;;;;10.57;5.90;;;;;;;7.58;100.00;98833.75;4843506;29;20041;-87
2024/03/10 17:10:32;;;;;;;7.72;5.05;;;;;;;7.58;100.00;98836.38;4858762;29;20048;-88
2024/03/10 17:13:01;;;;;;;7.60;5.35;;;;;;;7.52;100.00;98829.16;4842138;29;20037;-87
2024/03/10 17:15:37;;;;;;;7.03;5.53;;;;;;;7.53;100.00;98836.09;4821745;29;20526;-87
2024/03/10 17:18:07;;;;;;;7.88;5.45;;;;;;;7.53;100.00;98842.16;4833018;29;20119;-89
2024/03/10 17:20:33;;;;;;;8.55;5.53;;;;;;;7.52;100.00;98845.78;4847467;29;20043;-89
2024/03/10 17:22:59;;;;;;;9.02;5.97;;;;;;;7.47;100.00;98842.81;4829863;29;20045;-88
2024/03/10 17:25:25;;;;;;;10.15;6.63;;;;;;;7.44;100.00;98841.34;4829585;29;20049;-87
2024/03/10 17:27:52;;;;;;;8.90;6.70;;;;;;;7.48;100.00;98854.16;4827068;29;20057;-89
2024/03/10 17:30:24;;;;;;;5.57;4.57;;;;;;;7.43;100.00;98852.84;4815124;29;20393;-89
2024/03/10 17:32:53;;;;;;;8.23;4.95;;;;;;;7.42;100.00;98858.25;4830840;29;20037;-89
2024/03/10 17:35:23;;;;;;;6.38;5.03;;;;;;;7.39;100.00;98848.06;4865409;29;20037;-90
2024/03/10 17:37:50;;;;;;;9.18;4.95;;;;;;;7.47;100.00;98866.47;4817311;29;20037;-88
2024/03/10 17:40:20;;;;;;;7.50;5.68;;;;;;;7.42;100.00;98871.41;4812528;29;20098;-89
2024/03/10 17:42:46;;;;;;;7.95;5.10;;;;;;;7.47;100.00;98876.19;4833387;29;20116;-88
2024/03/10 17:45:12;;;;;;;8.63;7.35;;;;;;;7.43;100.00;98879.13;4843965;29;20132;-87
2024/03/10 17:47:38;;;;;;;10.18;8.48;;;;;;;7.44;100.00;98885.19;4824086;29;20080;-88
2024/03/10 17:50:06;;;;;;;14.10;9.85;;;;;;;7.45;100.00;98882.41;4858020;29;20044;-87
2024/03/10 17:52:33;;;;;;;9.32;8.32;;;;;;;7.44;100.00;98886.03;4831768;29;20051;-87
2024/03/10 17:54:59;;;;;;;10.80;7.80;;;;;;;7.45;100.00;98895.53;4854578;29;20129;-88
2024/03/10 17:57:26;;;;;;;10.75;8.43;;;;;;;7.45;100.00;98903.44;4815431;29;20073;-88
2024/03/10 17:59:55;;;;;;;11.18;7.63;;;;;;;7.43;100.00;98900.16;4829323;29;20040;-88
2024/03/10 18:02:21;;;;;;;9.50;6.47;;;;;;;7.41;100.00;98891.59;4845551;29;20053;-88
2024/03/10 18:04:47;;;;;;;10.13;5.50;;;;;;;7.39;100.00;98893.56;4811497;29;20041;-88
2024/03/10 18:07:12;;;;;;;5.30;3.47;;;;;;;7.39;100.00;98903.28;4828562;29;20037;-87
2024/03/10 18:09:38;;;;;;;3.13;2.67;;;;;;;7.41;100.00;98914.44;4837805;29;20162;-86
2024/03/10 18:12:05;;;;;;;2.60;2.03;;;;;;;7.41;100.00;98917.91;4830117;29;20116;-86
2024/03/10 18:14:32;;;;;;;4.38;3.08;;;;;;;7.39;100.00;98919.06;4827444;29;20057;-87
2024/03/10 18:17:01;;;;;;;3.20;2.25;;;;;;;7.36;100.00;98916.75;4827070;29;20073;-87
2024/03/10 18:19:27;;;;;;;1.80;1.30;;;;;;;7.32;100.00;98919.69;4871458;29;20038;-87
2024/03/10 18:21:54;;;;;;;1.83;1.58;;;;;;;7.31;100.00;98917.22;4843844;29;20548;-87
2024/03/10 18:24:20;;;;;;;2.55;1.90;;;;;;;7.31;100.00;98922.47;4819288;29;20400;-86
2024/03/10 18:26:49;;;;;;;3.83;1.65;;;;;;;7.32;100.00;98935.47;4843846;29;20071;-86
2024/03/10 18:29:16;;;;;;;3.10;1.42;;;;;;;7.28;100.00;98930.66;4844932;29;20041;-86
2024/03/10 18:31:41;;;;;;;2.25;1.42;;;;;;;7.25;100.00;98934.44;4827353;29;20037;-87
2024/03/10 18:34:10;;;;;;;2.45;1.45;;;;;;;7.26;100.00;98935.28;4830318;29;20124;-86
2024/03/10 18:36:37;;;;;;;1.90;1.70;;;;;;;7.29;100.00;98943.66;4844576;29;20037;-85
2024/03/10 18:39:03;;;;;;;3.33;1.83;;;;;;;7.28;100.00;98949.88;4846813;29;20061;-87
2024/03/10 18:41:29;;;;;;;1.83;1.63;;;;;;;7.28;100.00;98941.19;4848529;29;20098;-86